createdAt,value
2023-05-11T00:00:17.969Z,1.90
2023-05-11T00:03:04.000Z,1.60
2023-05-11T00:05:49.625Z,1.75
2023-05-11T00:08:35.183Z,1.30
2023-05-11T00:11:21.156Z,1.48
2023-05-11T00:14:06.681Z,1.58
2023-05-11T00:16:52.015Z,1.67
2023-05-11T00:19:37.855Z,1.52
2023-05-11T00:22:23.242Z,1.40
2023-05-11T00:25:09.340Z,1.80
2023-05-11T00:27:54.856Z,1.70
2023-05-11T00:30:42.196Z,1.55
2023-05-11T00:33:27.433Z,1.55
2023-05-11T00:36:13.116Z,1.52
2023-05-11T00:38:58.604Z,1.60
2023-05-11T00:41:44.211Z,1.75
2023-05-11T00:44:29.765Z,2.15
2023-05-11T00:47:15.477Z,1.60
2023-05-11T00:50:00.666Z,1.63
2023-05-11T00:52:46.337Z,1.48
2023-05-11T00:55:31.692Z,1.92
2023-05-11T00:58:17.793Z,1.55
2023-05-11T01:01:04.057Z,1.38
2023-05-11T01:03:49.666Z,2.20
2023-05-11T01:06:58.968Z,2.25
2023-05-11T01:09:44.347Z,1.52
2023-05-11T01:12:43.119Z,1.98
2023-05-11T01:15:37.307Z,1.60
2023-05-11T01:18:31.653Z,2.17
2023-05-11T01:26:14.651Z,1.58
2023-05-11T01:29:37.436Z,1.77
2023-05-11T01:32:25.741Z,1.77
2023-05-11T01:35:21.046Z,1.92
2023-05-11T01:38:11.320Z,1.52
2023-05-11T01:41:00.458Z,2.42
2023-05-11T01:43:53.597Z,1.88
2023-05-11T01:46:40.045Z,3.35
2023-05-11T01:49:26.353Z,2.20
2023-05-11T01:52:13.703Z,1.77
2023-05-11T01:55:00.707Z,3.13
2023-05-11T01:57:48.428Z,2.42
2023-05-11T02:00:34.315Z,2.15
2023-05-11T02:03:21.881Z,2.50
2023-05-11T02:06:09.639Z,1.98
2023-05-11T02:08:56.326Z,2.35
2023-05-11T02:11:43.813Z,2.15
2023-05-11T02:14:34.241Z,2.22
2023-05-11T02:17:22.749Z,2.22
2023-05-11T02:20:11.226Z,2.60
2023-05-11T02:22:58.009Z,2.15
2023-05-11T02:25:43.999Z,2.63
2023-05-11T02:28:29.565Z,2.83
2023-05-11T02:31:28.206Z,2.80
2023-05-11T02:34:23.439Z,2.88
2023-05-11T02:37:18.071Z,2.45
2023-05-11T02:40:08.243Z,2.15
2023-05-11T02:43:00.519Z,2.67
2023-05-11T02:45:48.236Z,2.53
2023-05-11T02:48:39.941Z,2.45
2023-05-11T02:51:32.478Z,3.13
2023-05-11T02:54:18.776Z,2.92
2023-05-11T02:57:04.338Z,3.60
2023-05-11T02:59:50.045Z,2.83
2023-05-11T03:02:35.492Z,2.78
2023-05-11T03:05:20.868Z,2.50
2023-05-11T03:08:06.545Z,3.22
2023-05-11T03:10:54.322Z,3.10
2023-05-11T03:13:39.581Z,2.92
2023-05-11T03:16:25.939Z,3.15
2023-05-11T03:19:11.753Z,3.63
2023-05-11T03:21:59.870Z,3.78
2023-05-11T03:24:45.409Z,2.92
2023-05-11T03:27:32.046Z,3.53
2023-05-11T03:30:18.413Z,3.25
2023-05-11T03:33:04.233Z,3.28
2023-05-11T03:35:52.548Z,3.00
2023-05-11T03:38:39.357Z,5.10
2023-05-11T03:41:27.834Z,3.20
2023-05-11T03:44:14.979Z,3.20
2023-05-11T03:47:01.792Z,2.70
2023-05-11T03:49:47.567Z,4.00
2023-05-11T03:52:33.170Z,3.15
2023-05-11T03:55:19.059Z,3.75
2023-05-11T03:58:09.228Z,2.97
2023-05-11T04:00:54.943Z,4.47
2023-05-11T04:03:51.038Z,3.78
2023-05-11T04:06:36.785Z,3.90
2023-05-11T04:09:22.463Z,4.40
2023-05-11T04:12:07.593Z,3.20
2023-05-11T04:14:53.072Z,3.80
2023-05-11T04:17:38.575Z,4.07
2023-05-11T04:20:24.144Z,3.92
2023-05-11T04:23:10.553Z,3.88
2023-05-11T04:25:56.686Z,3.85
2023-05-11T04:28:42.340Z,3.38
2023-05-11T04:31:27.871Z,3.20
2023-05-11T04:34:13.456Z,3.78
2023-05-11T04:36:59.072Z,4.05
2023-05-11T04:39:44.209Z,4.68
2023-05-11T04:42:31.152Z,4.00
2023-05-11T04:45:16.534Z,4.68
2023-05-11T04:48:02.028Z,5.03
2023-05-11T04:50:47.634Z,4.32
2023-05-11T04:53:33.248Z,4.00
2023-05-11T04:56:21.271Z,3.42
2023-05-11T04:59:07.510Z,3.50
2023-05-11T05:01:52.894Z,4.03
2023-05-11T05:04:38.553Z,3.85
2023-05-11T05:07:24.077Z,4.28
2023-05-11T05:10:10.042Z,5.07
2023-05-11T05:12:55.491Z,4.93
2023-05-11T05:15:41.029Z,3.80
2023-05-11T05:18:26.591Z,4.38
2023-05-11T05:21:12.060Z,4.18
2023-05-11T05:23:57.591Z,4.28
2023-05-11T05:26:43.267Z,5.38
2023-05-11T05:29:28.583Z,5.22
2023-05-11T05:32:14.117Z,6.05
2023-05-11T05:34:59.831Z,5.70
2023-05-11T05:37:45.285Z,4.72
2023-05-11T05:40:30.538Z,3.85
2023-05-11T05:43:15.885Z,4.72
2023-05-11T05:46:01.416Z,4.72
2023-05-11T05:48:46.842Z,4.93
2023-05-11T05:51:32.834Z,5.72
2023-05-11T05:54:18.430Z,5.43
2023-05-11T05:57:04.097Z,4.82
2023-05-11T05:59:49.537Z,4.45
2023-05-11T06:02:35.176Z,5.75
2023-05-11T06:05:20.870Z,5.03
2023-05-11T06:08:10.908Z,4.40
2023-05-11T06:10:57.008Z,6.82
2023-05-11T06:13:42.478Z,5.05
2023-05-11T06:16:28.269Z,5.25
2023-05-11T06:19:13.983Z,4.70
2023-05-11T06:21:59.729Z,5.38
2023-05-11T06:24:47.982Z,5.55
2023-05-11T06:27:33.252Z,6.13
2023-05-11T06:30:19.314Z,4.82
2023-05-11T06:33:05.319Z,5.68
2023-05-11T06:35:50.857Z,6.75
2023-05-11T06:38:36.624Z,5.03
2023-05-11T06:41:22.657Z,5.20
2023-05-11T06:44:08.586Z,5.45
2023-05-11T06:46:54.558Z,6.35
2023-05-11T06:49:42.644Z,4.80
2023-05-11T06:52:28.013Z,6.45
2023-05-11T06:55:16.479Z,5.88
2023-05-11T06:58:01.687Z,7.00
2023-05-11T07:00:47.580Z,6.38
2023-05-11T07:03:36.174Z,5.75
2023-05-11T07:06:21.926Z,6.72
2023-05-11T07:09:08.094Z,6.13
2023-05-11T07:11:53.867Z,5.57
2023-05-11T07:14:39.348Z,6.70
2023-05-11T07:17:24.985Z,5.28
2023-05-11T07:20:10.791Z,5.70
2023-05-11T07:22:59.650Z,4.88
2023-05-11T07:25:45.247Z,5.78
2023-05-11T07:28:30.813Z,5.18
2023-05-11T07:31:16.272Z,5.00
2023-05-11T07:34:02.135Z,6.40
2023-05-11T07:36:47.875Z,5.40
2023-05-11T07:39:33.319Z,6.00
2023-05-11T07:42:18.794Z,5.88
2023-05-11T07:45:04.475Z,4.90
2023-05-11T07:47:50.168Z,4.88
2023-05-11T07:50:35.762Z,4.22
2023-05-11T07:53:21.455Z,4.45
2023-05-11T07:56:07.074Z,4.38
2023-05-11T07:58:52.599Z,4.13
2023-05-11T08:01:38.185Z,3.70
2023-05-11T08:04:23.813Z,3.50
2023-05-11T08:07:09.281Z,4.30
2023-05-11T08:09:54.761Z,5.00
2023-05-11T08:12:40.314Z,4.32
2023-05-11T08:15:25.800Z,3.50
2023-05-11T08:18:11.939Z,3.60
2023-05-11T08:20:57.518Z,3.50
2023-05-11T08:23:44.618Z,3.97
2023-05-11T08:26:30.767Z,3.20
2023-05-11T08:29:16.356Z,3.80
2023-05-11T08:32:02.241Z,3.72
2023-05-11T08:34:48.042Z,2.72
2023-05-11T08:37:33.414Z,3.45
2023-05-11T08:40:20.228Z,3.50
2023-05-11T08:43:07.520Z,3.78
2023-05-11T08:46:01.181Z,3.03
2023-05-11T08:48:47.061Z,3.88
2023-05-11T08:51:32.888Z,3.72
2023-05-11T08:54:18.669Z,3.40
2023-05-11T08:57:04.664Z,3.65
2023-05-11T08:59:52.045Z,4.93
2023-05-11T09:02:37.638Z,3.72
2023-05-11T09:05:23.951Z,4.70
2023-05-11T09:08:12.516Z,3.47
2023-05-11T09:10:59.188Z,4.38
2023-05-11T09:13:44.548Z,4.60
2023-05-11T09:16:36.628Z,4.28
2023-05-11T09:19:22.502Z,3.88
2023-05-11T09:22:08.019Z,4.05
2023-05-11T09:24:54.036Z,3.20
2023-05-11T09:27:47.192Z,2.60
2023-05-11T09:30:34.164Z,3.42
2023-05-11T09:33:25.851Z,3.05
2023-05-11T09:36:24.379Z,2.95
2023-05-11T09:39:15.426Z,3.00
2023-05-11T09:42:18.073Z,2.90
2023-05-11T09:45:03.771Z,3.28
2023-05-11T09:47:49.199Z,3.08
2023-05-11T09:50:36.365Z,2.45
2023-05-11T09:53:33.524Z,3.05
2023-05-11T09:56:19.331Z,2.08
2023-05-11T09:59:04.904Z,1.50
2023-05-11T10:01:50.337Z,3.67
2023-05-11T10:04:36.071Z,2.25
2023-05-11T10:07:25.659Z,3.42
2023-05-11T10:10:11.799Z,3.80
2023-05-11T10:13:02.558Z,3.50
2023-05-11T10:15:51.948Z,2.95
2023-05-11T10:18:37.720Z,2.80
2023-05-11T10:21:23.994Z,2.42
2023-05-11T10:24:11.165Z,2.60
2023-05-11T10:26:57.525Z,2.75
2023-05-11T10:29:43.629Z,2.75
2023-05-11T10:32:29.736Z,3.10
2023-05-11T10:35:16.280Z,2.70
2023-05-11T10:38:02.293Z,2.30
2023-05-11T10:40:48.501Z,2.13
2023-05-11T10:43:53.010Z,2.08
2023-05-11T10:46:56.885Z,3.20
2023-05-11T10:49:52.124Z,3.10
2023-05-11T10:53:08.409Z,3.15
2023-05-11T10:56:21.281Z,3.03
2023-05-11T10:59:35.490Z,1.90
2023-05-11T11:02:22.201Z,1.85
2023-05-11T11:05:09.666Z,1.90
2023-05-11T11:08:07.356Z,2.35
2023-05-11T11:10:52.879Z,2.00
2023-05-11T11:13:57.126Z,2.08
2023-05-11T11:17:32.368Z,2.10
2023-05-11T11:20:48.674Z,2.45
2023-05-11T11:23:43.090Z,2.10
2023-05-11T11:26:50.770Z,2.50
2023-05-11T11:29:37.838Z,1.80
2023-05-11T11:32:23.219Z,1.60
2023-05-11T11:35:47.178Z,2.30
2023-05-11T11:38:33.199Z,1.65
2023-05-11T11:41:29.774Z,1.20
2023-05-11T11:44:22.089Z,2.08
2023-05-11T11:47:21.661Z,2.10
2023-05-11T11:50:13.636Z,1.60
2023-05-11T11:52:59.619Z,1.80
2023-05-11T11:55:51.975Z,1.75
2023-05-11T11:58:43.580Z,1.80
2023-05-11T12:01:35.663Z,1.60
2023-05-11T12:04:39.211Z,2.10
2023-05-11T12:07:26.180Z,1.42
2023-05-11T12:10:14.172Z,1.70
2023-05-11T12:13:00.186Z,1.73
2023-05-11T12:15:45.476Z,2.47
2023-05-11T12:18:31.024Z,1.80
2023-05-11T12:21:21.255Z,1.88
2023-05-11T12:24:07.264Z,1.55
2023-05-11T12:26:56.679Z,2.03
2023-05-11T12:29:42.471Z,1.60
2023-05-11T12:32:30.262Z,1.95
2023-05-11T12:35:23.070Z,1.58
2023-05-11T12:38:11.719Z,1.70
2023-05-11T12:40:57.029Z,1.42
2023-05-11T12:43:42.490Z,1.80
2023-05-11T12:46:28.472Z,1.67
2023-05-11T12:52:11.698Z,1.73
2023-05-11T12:55:00.651Z,1.42
2023-05-11T12:57:46.094Z,1.38
2023-05-11T13:00:31.531Z,1.77
2023-05-11T13:03:22.861Z,1.20
2023-05-11T13:06:13.509Z,1.20
2023-05-11T13:08:59.600Z,1.42
2023-05-11T13:11:45.067Z,1.30
2023-05-11T13:14:31.707Z,1.42
2023-05-11T13:17:34.721Z,1.33
2023-05-11T13:23:15.044Z,1.40
2023-05-11T13:26:01.065Z,1.60
2023-05-11T13:28:52.496Z,1.70
2023-05-11T13:31:49.408Z,1.10
2023-05-11T13:34:36.830Z,1.08
2023-05-11T13:37:22.430Z,2.03
2023-05-11T13:40:11.203Z,1.48
2023-05-11T13:42:56.856Z,1.60
2023-05-11T13:45:42.449Z,1.23
2023-05-11T13:48:27.882Z,1.35
2023-05-11T13:51:13.362Z,1.55
2023-05-11T13:54:00.979Z,1.15
2023-05-11T13:56:46.163Z,2.05
2023-05-11T13:59:31.728Z,1.60
2023-05-11T14:02:17.368Z,1.58
2023-05-11T14:05:02.965Z,1.70
2023-05-11T14:07:49.141Z,1.50
2023-05-11T14:10:34.837Z,1.23
2023-05-11T14:13:20.331Z,1.67
2023-05-11T14:16:06.262Z,1.27
2023-05-11T14:18:51.819Z,1.35
2023-05-11T14:21:38.011Z,1.27
2023-05-11T14:24:23.647Z,1.23
2023-05-11T14:27:09.225Z,1.83
2023-05-11T14:29:55.080Z,1.55
2023-05-11T14:32:40.278Z,1.38
2023-05-11T14:35:25.791Z,1.30
2023-05-11T14:38:11.385Z,1.55
2023-05-11T14:40:57.014Z,1.60
2023-05-11T14:43:42.315Z,1.48
2023-05-11T14:46:27.980Z,1.17
2023-05-11T14:49:13.238Z,1.17
2023-05-11T14:51:59.434Z,1.58
2023-05-11T14:54:45.264Z,1.30
2023-05-11T14:57:30.816Z,1.20
2023-05-11T15:00:16.616Z,1.38
2023-05-11T15:03:02.271Z,1.30
2023-05-11T15:05:47.695Z,1.45
2023-05-11T15:08:33.150Z,1.85
2023-05-11T15:11:18.903Z,2.03
2023-05-11T15:14:05.080Z,1.42
2023-05-11T15:16:52.396Z,1.52
2023-05-11T15:19:37.539Z,1.58
2023-05-11T15:22:22.889Z,1.67
2023-05-11T15:25:09.305Z,1.42
2023-05-11T15:27:54.553Z,2.00
2023-05-11T15:30:41.508Z,0.90
2023-05-11T15:33:27.125Z,0.90
2023-05-11T15:36:14.055Z,0.70
2023-05-11T15:38:59.495Z,1.38
2023-05-11T15:41:44.775Z,0.85
2023-05-11T15:44:30.468Z,1.02
2023-05-11T15:47:16.481Z,1.23
2023-05-11T15:50:02.326Z,1.45
2023-05-11T15:52:48.060Z,0.70
2023-05-11T15:55:33.519Z,1.05
2023-05-11T15:58:18.674Z,0.82
2023-05-11T16:01:04.221Z,1.13
2023-05-11T16:03:50.016Z,0.93
2023-05-11T16:06:35.678Z,0.70
2023-05-11T16:09:20.945Z,0.70
2023-05-11T16:12:06.884Z,0.80
2023-05-11T16:14:52.829Z,0.88
2023-05-11T16:17:38.399Z,0.77
2023-05-11T16:20:24.090Z,0.73
2023-05-11T16:23:09.430Z,0.90
2023-05-11T16:26:07.859Z,0.60
2023-05-11T16:28:54.124Z,0.57
2023-05-11T16:31:39.972Z,0.90
2023-05-11T16:34:27.048Z,0.80
2023-05-11T16:37:12.817Z,1.00
2023-05-11T16:39:58.445Z,0.77
2023-05-11T16:42:43.993Z,0.90
2023-05-11T16:45:29.432Z,1.20
2023-05-11T16:48:15.687Z,1.67
2023-05-11T16:51:01.218Z,1.85
2023-05-11T16:53:46.924Z,2.10
2023-05-11T16:56:33.212Z,4.00
2023-05-11T16:59:18.666Z,5.43
2023-05-11T17:02:06.919Z,6.22
2023-05-11T17:04:53.354Z,4.45
2023-05-11T17:07:39.302Z,1.83
2023-05-11T17:10:24.602Z,1.55
2023-05-11T17:13:10.243Z,1.10
2023-05-11T17:15:57.519Z,1.00
2023-05-11T17:18:43.239Z,0.90
2023-05-11T17:21:29.019Z,0.63
2023-05-11T17:24:14.720Z,0.63
2023-05-11T17:27:00.691Z,0.80
2023-05-11T17:29:46.271Z,0.70
2023-05-11T17:32:32.133Z,0.93
2023-05-11T17:35:18.235Z,0.90
2023-05-11T17:38:05.100Z,0.60
2023-05-11T17:40:50.617Z,0.90
2023-05-11T17:43:37.930Z,0.60
2023-05-11T17:46:23.179Z,0.80
2023-05-11T17:49:08.946Z,0.90
2023-05-11T17:51:54.355Z,0.95
2023-05-11T17:54:40.048Z,1.60
2023-05-11T17:57:27.156Z,2.17
2023-05-11T18:00:13.386Z,2.10
2023-05-11T18:02:59.085Z,2.53
2023-05-11T18:05:48.961Z,3.22
2023-05-11T18:08:36.665Z,2.92
2023-05-11T18:11:22.277Z,2.97
2023-05-11T18:14:10.681Z,2.80
2023-05-11T18:16:56.232Z,2.70
2023-05-11T18:19:41.752Z,2.70
2023-05-11T18:22:39.370Z,2.80
2023-05-11T18:25:28.331Z,2.72
2023-05-11T18:28:14.138Z,3.05
2023-05-11T18:31:00.596Z,2.72
2023-05-11T18:33:46.748Z,6.78
2023-05-11T18:36:32.131Z,4.55
2023-05-11T18:39:17.795Z,3.55
2023-05-11T18:42:03.803Z,4.68
2023-05-11T18:44:53.360Z,4.85
2023-05-11T18:47:41.374Z,3.53
2023-05-11T18:50:29.672Z,3.35
2023-05-11T18:53:15.472Z,3.95
2023-05-11T18:56:07.335Z,4.03
2023-05-11T18:58:53.375Z,4.35
2023-05-11T19:01:47.598Z,4.30
2023-05-11T19:04:33.913Z,3.38
2023-05-11T19:07:20.276Z,3.83
2023-05-11T19:10:07.476Z,3.15
2023-05-11T19:12:52.939Z,3.58
2023-05-11T19:15:38.417Z,3.67
2023-05-11T19:18:25.511Z,4.47
2023-05-11T19:21:11.009Z,3.60
2023-05-11T19:23:56.723Z,4.28
2023-05-11T19:26:42.752Z,3.83
2023-05-11T19:29:31.408Z,4.28
2023-05-11T19:32:18.943Z,3.65
2023-05-11T19:35:07.436Z,3.70
2023-05-11T19:37:52.797Z,3.90
2023-05-11T19:40:45.907Z,3.10
2023-05-11T19:43:31.895Z,3.45
2023-05-11T19:46:17.568Z,3.67
2023-05-11T19:49:04.083Z,3.55
2023-05-11T19:51:49.285Z,3.90
2023-05-11T19:54:34.886Z,3.80
2023-05-11T19:57:20.329Z,3.67
2023-05-11T20:00:09.997Z,4.07
2023-05-11T20:02:55.487Z,3.60
2023-05-11T20:05:41.247Z,3.78
2023-05-11T20:08:26.747Z,3.97
2023-05-11T20:11:12.513Z,3.60
2023-05-11T20:14:00.774Z,4.47
2023-05-11T20:16:46.520Z,5.10
2023-05-11T20:19:32.311Z,5.10
2023-05-11T20:22:17.931Z,4.53
2023-05-11T20:25:04.703Z,4.57
2023-05-11T20:27:51.111Z,5.10
2023-05-11T20:30:37.062Z,4.57
2023-05-11T20:36:10.910Z,5.78
2023-05-11T20:38:56.470Z,5.78
2023-05-11T20:41:41.721Z,5.75
2023-05-11T20:44:27.375Z,5.07
2023-05-11T20:47:13.308Z,4.60
2023-05-11T20:49:58.931Z,4.18
2023-05-11T20:52:44.421Z,4.95
2023-05-11T20:55:29.983Z,4.57
2023-05-11T20:58:15.475Z,4.90
2023-05-11T21:01:01.168Z,4.07
2023-05-11T21:03:46.823Z,4.07
2023-05-11T21:06:33.009Z,4.32
2023-05-11T21:09:18.599Z,3.80
2023-05-11T21:12:04.227Z,4.20
2023-05-11T21:14:49.567Z,3.70
2023-05-11T21:17:36.226Z,4.20
2023-05-11T21:20:22.148Z,4.70
2023-05-11T21:23:08.459Z,3.85
2023-05-11T21:25:55.096Z,4.40
2023-05-11T21:28:40.707Z,4.30
2023-05-11T21:31:26.111Z,4.70
2023-05-11T21:34:11.957Z,4.30
2023-05-11T21:36:57.402Z,4.35
2023-05-11T21:39:42.879Z,4.55
2023-05-11T21:42:34.444Z,4.30
2023-05-11T21:45:20.203Z,4.53
2023-05-11T21:48:05.773Z,3.67
2023-05-11T21:50:53.613Z,4.32
2023-05-11T21:53:39.281Z,3.85
2023-05-11T21:56:25.127Z,4.22
2023-05-11T21:59:10.486Z,3.83
2023-05-11T22:01:57.174Z,4.50
2023-05-11T22:04:42.525Z,3.53
2023-05-11T22:07:28.244Z,3.92
2023-05-11T22:10:13.875Z,3.88
2023-05-11T22:12:59.506Z,3.20
2023-05-11T22:15:45.050Z,4.22
2023-05-11T22:18:30.675Z,4.15
2023-05-11T22:21:16.495Z,4.13
2023-05-11T22:24:02.181Z,4.18
2023-05-11T22:26:47.393Z,4.15
2023-05-11T22:29:32.935Z,4.32
2023-05-11T22:32:18.596Z,4.13
2023-05-11T22:35:04.503Z,3.90
2023-05-11T22:37:49.958Z,3.85
2023-05-11T22:40:35.429Z,3.53
2023-05-11T22:43:21.372Z,3.80
2023-05-11T22:46:07.056Z,4.55
2023-05-11T22:48:52.787Z,3.55
2023-05-11T22:51:38.280Z,3.75
2023-05-11T22:54:24.655Z,3.80
2023-05-11T22:57:11.656Z,4.10
2023-05-11T22:59:57.209Z,4.25
2023-05-11T23:02:43.016Z,4.18
2023-05-11T23:05:28.499Z,4.47
2023-05-11T23:08:14.132Z,4.38
2023-05-11T23:10:59.537Z,4.28
2023-05-11T23:13:44.957Z,4.60
2023-05-11T23:16:30.748Z,4.15
2023-05-11T23:19:16.069Z,4.45
2023-05-11T23:22:01.670Z,3.60
2023-05-11T23:24:46.967Z,4.10
2023-05-11T23:27:32.650Z,5.03
2023-05-11T23:30:19.064Z,4.32
2023-05-11T23:33:04.726Z,4.97
2023-05-11T23:35:50.672Z,4.38
2023-05-11T23:38:35.994Z,4.95
2023-05-11T23:41:22.339Z,5.25
2023-05-11T23:44:07.398Z,4.30
2023-05-11T23:46:53.337Z,3.90
2023-05-11T23:49:38.773Z,4.28
2023-05-11T23:52:24.358Z,4.43
2023-05-11T23:55:10.563Z,4.35
2023-05-11T23:57:58.708Z,4.50
